Time;durP1;ratioP1;P1;durP2;ratioP2;P2;SDS_P1;SDS_P2;PMS_P1;PMS_P2;Temp;Humidity;BMP_temperature;BMP_pressure;BME280_temperature;BME280_humidity;BME280_pressure;Samples;Min_cycle;Max_cycle;Signal;HPM_P1;HPM_P2
2022/05/08 00:01:39;;;;;;;17.57;3.90;;;8.60;99.90;;;;;;5036540;28;20193;-60
2022/05/08 00:04:08;;;;;;;18.03;3.60;;;8.60;99.90;;;;;;5054793;28;20185;-60
2022/05/08 00:06:34;;;;;;;16.17;3.20;;;8.50;99.90;;;;;;5048241;28;20277;-60
2022/05/08 00:09:01;;;;;;;12.53;3.53;;;8.40;99.90;;;;;;5030997;28;20229;-60
2022/05/08 00:11:28;;;;;;;15.30;2.77;;;8.50;99.90;;;;;;5006418;28;20212;-60
2022/05/08 00:13:56;;;;;;;9.93;3.20;;;8.50;99.90;;;;;;5010345;28;20205;-60
2022/05/08 00:16:23;;;;;;;12.87;2.97;;;8.50;99.90;;;;;;5015926;28;20202;-60
2022/05/08 00:18:50;;;;;;;14.60;2.77;;;8.50;99.90;;;;;;5024763;28;20206;-60
2022/05/08 00:21:18;;;;;;;10.40;2.90;;;8.50;99.90;;;;;;5022288;28;20194;-60
2022/05/08 00:23:46;;;;;;;9.70;2.93;;;8.50;99.90;;;;;;5026662;28;20194;-60
2022/05/08 00:26:14;;;;;;;16.27;3.53;;;8.50;99.90;;;;;;4996494;28;20210;-61
2022/05/08 00:28:41;;;;;;;8.47;2.13;;;8.50;99.90;;;;;;5024132;28;21264;-61
2022/05/08 00:31:12;;;;;;;12.63;3.30;;;8.50;99.90;;;;;;5008668;28;20229;-61
2022/05/08 00:33:39;;;;;;;8.80;3.23;;;8.50;99.90;;;;;;5028644;28;20686;-60
2022/05/08 00:36:07;;;;;;;10.37;2.77;;;8.30;99.90;;;;;;5016591;28;20234;-61
2022/05/08 00:38:35;;;;;;;8.97;2.17;;;8.20;99.90;;;;;;5027195;28;20570;-60
2022/05/08 00:41:03;;;;;;;9.87;2.63;;;8.10;99.90;;;;;;4997083;28;20945;-60
2022/05/08 00:43:33;;;;;;;8.40;2.20;;;8.00;99.90;;;;;;5020515;28;20265;-60
2022/05/08 00:46:05;;;;;;;15.30;2.93;;;7.90;99.90;;;;;;5003943;28;20205;-60
2022/05/08 00:48:32;;;;;;;7.90;2.23;;;7.80;99.90;;;;;;5012076;28;20216;-60
2022/05/08 00:51:01;;;;;;;7.67;2.43;;;7.80;99.90;;;;;;5017893;28;20320;-60
2022/05/08 00:53:35;;;;;;;10.43;2.50;;;7.80;99.90;;;;;;5010191;28;20209;-60
2022/05/08 00:56:05;;;;;;;8.43;3.00;;;7.70;99.90;;;;;;5010843;28;20236;-61
2022/05/08 00:58:32;;;;;;;6.80;2.83;;;7.60;99.90;;;;;;5023843;28;20201;-60
2022/05/08 01:00:59;;;;;;;7.67;2.50;;;7.50;99.90;;;;;;5000153;28;20213;-62
2022/05/08 01:03:26;;;;;;;15.63;2.70;;;7.50;99.90;;;;;;5028958;28;20641;-60
2022/05/08 01:05:57;;;;;;;9.33;3.40;;;7.60;99.90;;;;;;5013156;28;20629;-60
2022/05/08 01:08:26;;;;;;;9.23;2.40;;;7.60;99.90;;;;;;5027031;28;20197;-60
2022/05/08 01:10:55;;;;;;;6.70;2.60;;;7.60;99.90;;;;;;5020768;28;20624;-60
2022/05/08 01:13:22;;;;;;;8.07;2.53;;;7.60;99.90;;;;;;5012862;28;20244;-60
2022/05/08 01:15:49;;;;;;;12.50;2.80;;;7.70;99.90;;;;;;5007009;28;21193;-60
2022/05/08 01:18:17;;;;;;;11.97;2.97;;;7.70;99.90;;;;;;5024097;28;20676;-60
2022/05/08 01:20:46;;;;;;;11.57;3.77;;;7.80;99.90;;;;;;5021682;28;20296;-60
2022/05/08 01:23:15;;;;;;;10.97;3.00;;;7.80;99.90;;;;;;5019567;28;20697;-60
2022/05/08 01:25:51;;;;;;;7.60;2.97;;;7.80;99.90;;;;;;5008181;28;20213;-60
2022/05/08 01:28:18;;;;;;;9.43;2.77;;;7.90;99.90;;;;;;5007856;28;20210;-61
2022/05/08 01:30:48;;;;;;;6.67;2.50;;;7.90;99.90;;;;;;5023889;28;20244;-60
2022/05/08 01:33:15;;;;;;;7.33;2.80;;;7.90;99.90;;;;;;5022519;28;20547;-60
2022/05/08 01:35:43;;;;;;;10.23;3.00;;;7.90;99.90;;;;;;5026113;28;20201;-60
2022/05/08 01:38:12;;;;;;;17.20;3.67;;;7.80;99.90;;;;;;5014095;28;20202;-60
2022/05/08 01:40:41;;;;;;;10.17;3.17;;;7.90;99.90;;;;;;5029495;28;20221;-60
2022/05/08 01:43:10;;;;;;;9.80;3.00;;;7.90;99.90;;;;;;5002236;28;20317;-60
2022/05/08 01:45:37;;;;;;;6.73;2.23;;;7.90;99.90;;;;;;5014646;28;20225;-60
2022/05/08 01:48:23;;;;;;;7.40;2.57;;;7.90;99.90;;;;;;5004816;28;20272;-60
2022/05/08 01:50:51;;;;;;;8.43;2.47;;;7.90;99.90;;;;;;5026939;28;20222;-60
2022/05/08 01:53:19;;;;;;;8.73;2.60;;;7.90;99.90;;;;;;5024766;28;20211;-60
2022/05/08 01:55:49;;;;;;;8.93;2.50;;;7.90;99.90;;;;;;5023561;28;23090;-60
2022/05/08 01:58:17;;;;;;;9.40;3.07;;;7.80;99.90;;;;;;5005245;28;20248;-60
2022/05/08 02:00:45;;;;;;;4.10;2.00;;;7.70;99.90;;;;;;5026407;28;20676;-60
2022/05/08 02:03:13;;;;;;;9.80;2.90;;;7.60;99.90;;;;;;5014642;28;20340;-60
2022/05/08 02:05:41;;;;;;;11.97;2.80;;;7.60;99.90;;;;;;5008371;28;20232;-60
2022/05/08 02:08:08;;;;;;;12.33;2.83;;;7.60;99.90;;;;;;5021595;28;20197;-60
2022/05/08 02:10:35;;;;;;;5.90;2.40;;;7.50;99.90;;;;;;5019725;28;20248;-60
2022/05/08 02:13:04;;;;;;;7.40;2.93;;;7.40;99.90;;;;;;4999377;28;20206;-60
2022/05/08 02:15:31;;;;;;;11.20;3.23;;;7.40;99.90;;;;;;5023141;28;20904;-60
2022/05/08 02:18:01;;;;;;;7.23;2.97;;;7.30;99.90;;;;;;5023104;28;20216;-60
2022/05/08 02:20:28;;;;;;;9.03;2.90;;;7.30;99.90;;;;;;5018743;28;20202;-60
2022/05/08 02:22:55;;;;;;;10.03;2.83;;;7.30;99.90;;;;;;5033507;28;20209;-61
2022/05/08 02:25:23;;;;;;;9.43;2.37;;;7.20;99.90;;;;;;5013732;28;20216;-60
2022/05/08 02:27:51;;;;;;;6.00;2.50;;;7.10;99.90;;;;;;5016312;28;20210;-61
2022/05/08 02:30:21;;;;;;;8.63;2.77;;;7.00;99.90;;;;;;5026651;28;20360;-60
2022/05/08 02:32:49;;;;;;;4.83;2.73;;;6.90;99.90;;;;;;5021411;28;20601;-60
2022/05/08 02:35:17;;;;;;;10.07;2.30;;;7.00;99.90;;;;;;5025201;28;20584;-61
2022/05/08 02:37:44;;;;;;;12.67;2.83;;;7.10;99.90;;;;;;5031665;28;20572;-61
2022/05/08 02:40:11;;;;;;;8.50;2.37;;;7.10;99.90;;;;;;5027875;28;20224;-60
2022/05/08 02:45:44;;;;;;;7.57;2.37;;;7.10;99.90;;;;;;4983106;28;20266;-60
2022/05/08 02:48:11;;;;;;;4.70;2.20;;;7.10;99.90;;;;;;5015981;28;20296;-60
2022/05/08 02:50:38;;;;;;;7.37;2.30;;;7.10;99.90;;;;;;5014555;28;21148;-60
2022/05/08 02:53:06;;;;;;;9.07;2.27;;;7.10;99.90;;;;;;5015930;28;20213;-60
2022/05/08 02:58:35;;;;;;;4.00;1.97;;;7.10;99.90;;;;;;5008662;28;20216;-60
2022/05/08 03:01:06;;;;;;;13.47;2.47;;;7.10;99.90;;;;;;5024136;28;20313;-60
2022/05/08 03:03:33;;;;;;;5.07;2.40;;;7.00;99.90;;;;;;5011763;28;20198;-60
2022/05/08 03:06:00;;;;;;;8.10;2.53;;;6.90;99.90;;;;;;5017798;28;20663;-60
2022/05/08 03:08:26;;;;;;;6.20;2.80;;;7.00;99.90;;;;;;5011187;28;20208;-60
2022/05/08 03:13:39;;;;;;;4.70;2.27;;;7.10;99.90;;;;;;5010485;28;20219;-60
2022/05/08 03:16:09;;;;;;;11.13;2.93;;;7.10;99.90;;;;;;4999722;28;20201;-62
2022/05/08 03:18:39;;;;;;;7.77;2.73;;;7.10;99.90;;;;;;5014739;28;20289;-60
2022/05/08 03:21:05;;;;;;;10.17;2.37;;;7.20;99.90;;;;;;5008987;28;20905;-61
2022/05/08 03:23:34;;;;;;;6.57;2.73;;;7.10;99.90;;;;;;5016940;28;20227;-60
2022/05/08 03:26:00;;;;;;;4.73;2.03;;;6.90;99.90;;;;;;5015667;28;20319;-60
2022/05/08 03:28:28;;;;;;;4.40;2.20;;;7.00;99.90;;;;;;5010102;28;21330;-60
2022/05/08 03:30:54;;;;;;;6.90;2.30;;;6.90;99.90;;;;;;5010001;28;20228;-60
2022/05/08 03:33:23;;;;;;;9.60;2.47;;;7.00;99.90;;;;;;5015678;28;20684;-60
2022/05/08 03:35:50;;;;;;;10.03;2.20;;;7.00;99.90;;;;;;5010645;28;20212;-60
2022/05/08 03:38:18;;;;;;;4.23;2.23;;;7.00;99.90;;;;;;5023092;28;20221;-60
2022/05/08 03:40:45;;;;;;;5.83;2.00;;;7.00;99.90;;;;;;5013774;28;20228;-60
2022/05/08 03:43:12;;;;;;;8.83;1.90;;;7.20;99.90;;;;;;5029139;28;20306;-61
2022/05/08 03:45:39;;;;;;;8.30;2.37;;;7.20;99.90;;;;;;5024830;28;20197;-60
2022/05/08 03:48:07;;;;;;;6.07;2.50;;;7.30;99.90;;;;;;5012676;28;20221;-60
2022/05/08 03:50:36;;;;;;;7.03;2.17;;;7.20;99.90;;;;;;5005680;28;20355;-60
2022/05/08 03:53:04;;;;;;;5.63;1.90;;;7.00;99.90;;;;;;5019888;28;20216;-60
2022/05/08 03:55:31;;;;;;;4.67;2.20;;;6.90;99.90;;;;;;5006118;28;20247;-60
2022/05/08 03:57:58;;;;;;;5.83;2.23;;;6.70;99.90;;;;;;5022705;28;20209;-60
2022/05/08 04:00:25;;;;;;;10.00;2.57;;;6.50;99.90;;;;;;5021751;28;20209;-60
2022/05/08 04:02:52;;;;;;;7.90;2.17;;;6.40;99.90;;;;;;5011729;28;20306;-60
2022/05/08 04:05:19;;;;;;;6.63;2.17;;;6.30;99.90;;;;;;5016559;28;20297;-60
2022/05/08 04:07:48;;;;;;;4.93;2.50;;;6.30;99.90;;;;;;5021246;28;20196;-60
2022/05/08 04:10:14;;;;;;;3.07;1.80;;;6.30;99.90;;;;;;5013899;28;20232;-60
2022/05/08 04:12:42;;;;;;;11.10;2.13;;;6.30;99.90;;;;;;5025949;28;20671;-61
2022/05/08 04:16:15;;;;;;;8.70;2.30;;;6.30;99.90;;;;;;5019365;28;20201;-60
2022/05/08 04:17:57;;;;;;;7.10;1.73;;;6.30;99.90;;;;;;5013240;28;20928;-60
2022/05/08 04:20:24;;;;;;;8.57;2.60;;;6.30;99.90;;;;;;5020938;28;20215;-60
2022/05/08 04:25:37;;;;;;;5.70;2.30;;;6.60;99.90;;;;;;5019227;28;20219;-61
2022/05/08 04:28:04;;;;;;;6.67;2.37;;;6.80;99.90;;;;;;5013172;28;20214;-60
2022/05/08 04:30:31;;;;;;;7.23;2.27;;;6.90;99.90;;;;;;5022627;28;20271;-60
2022/05/08 04:32:58;;;;;;;7.97;2.63;;;7.10;99.90;;;;;;4999729;28;20562;-60
2022/05/08 04:35:25;;;;;;;6.20;2.30;;;7.10;99.90;;;;;;5023941;28;20216;-60
2022/05/08 04:37:53;;;;;;;10.97;3.07;;;7.20;99.90;;;;;;5000026;28;23362;-60
2022/05/08 04:40:20;;;;;;;3.67;1.90;;;7.20;99.90;;;;;;5020443;28;20204;-60
2022/05/08 04:42:47;;;;;;;6.17;2.10;;;7.10;99.90;;;;;;5019140;28;20828;-60
2022/05/08 04:45:14;;;;;;;4.43;2.37;;;7.10;99.90;;;;;;5019575;28;20212;-60
2022/05/08 04:47:41;;;;;;;7.60;2.40;;;7.20;99.90;;;;;;5016267;28;20686;-60
2022/05/08 04:50:09;;;;;;;7.67;2.40;;;7.10;99.90;;;;;;5003257;28;20213;-60
2022/05/08 04:52:36;;;;;;;5.40;2.07;;;7.10;99.90;;;;;;4991313;28;20234;-60
2022/05/08 04:55:05;;;;;;;3.70;1.90;;;7.10;99.90;;;;;;5015740;28;20200;-60
2022/05/08 04:57:31;;;;;;;3.87;1.77;;;7.20;99.90;;;;;;5023168;28;20206;-60
2022/05/08 05:00:00;;;;;;;3.23;1.80;;;7.10;99.90;;;;;;5008481;28;20201;-60
2022/05/08 05:02:29;;;;;;;6.97;2.10;;;7.10;99.90;;;;;;5024816;28;20846;-60
2022/05/08 05:04:57;;;;;;;6.17;1.63;;;7.30;99.90;;;;;;5009245;28;20231;-60
2022/05/08 05:07:24;;;;;;;2.90;1.67;;;7.30;99.90;;;;;;5002570;28;20638;-60
2022/05/08 05:09:51;;;;;;;7.40;2.10;;;7.30;99.90;;;;;;5001948;28;20205;-60
2022/05/08 05:12:20;;;;;;;3.63;1.90;;;7.40;99.90;;;;;;5024425;28;20286;-60
2022/05/08 05:14:46;;;;;;;2.67;1.57;;;7.50;99.90;;;;;;4991956;28;20262;-60
2022/05/08 05:17:13;;;;;;;4.00;2.10;;;7.50;99.90;;;;;;5027665;28;20230;-61
2022/05/08 05:19:40;;;;;;;9.97;2.27;;;7.60;99.90;;;;;;5000115;28;20206;-60
2022/05/08 05:22:07;;;;;;;7.87;2.47;;;7.70;99.90;;;;;;5006909;28;20201;-60
2022/05/08 05:24:34;;;;;;;10.87;2.13;;;7.80;99.90;;;;;;5005535;28;20209;-60
2022/05/08 05:27:01;;;;;;;6.07;1.93;;;8.00;99.90;;;;;;5022638;28;20204;-60
2022/05/08 05:29:29;;;;;;;10.90;2.40;;;8.10;99.90;;;;;;5002524;28;20236;-60
2022/05/08 05:31:56;;;;;;;9.47;2.10;;;8.20;99.90;;;;;;5012916;28;20363;-60
2022/05/08 05:34:23;;;;;;;11.97;2.07;;;8.30;99.90;;;;;;5001674;28;20251;-60
2022/05/08 05:36:50;;;;;;;8.90;1.97;;;8.30;99.90;;;;;;5011496;28;21199;-60
2022/05/08 05:39:16;;;;;;;9.23;2.50;;;8.40;99.90;;;;;;5023754;28;20197;-60
2022/05/08 05:41:45;;;;;;;13.63;2.63;;;8.50;99.90;;;;;;4999163;28;21001;-60
2022/05/08 05:44:12;;;;;;;8.87;2.20;;;8.50;99.90;;;;;;5008608;28;20712;-60
2022/05/08 05:49:27;;;;;;;11.33;2.37;;;8.70;99.90;;;;;;5003552;28;20709;-60
2022/05/08 05:51:54;;;;;;;12.57;3.23;;;8.80;99.90;;;;;;5009549;28;20278;-60
2022/05/08 05:54:22;;;;;;;8.67;2.20;;;8.80;99.90;;;;;;5013531;28;20204;-60
2022/05/08 05:56:50;;;;;;;12.17;2.63;;;8.90;99.90;;;;;;5000049;28;21088;-60
2022/05/08 05:59:17;;;;;;;10.10;2.50;;;8.90;99.90;;;;;;5016911;28;20617;-60
2022/05/08 06:01:46;;;;;;;5.43;1.80;;;8.90;99.90;;;;;;4986938;28;20213;-60
2022/05/08 06:04:13;;;;;;;16.50;2.10;;;9.00;99.90;;;;;;5002102;28;20202;-60
2022/05/08 06:06:41;;;;;;;8.37;2.13;;;8.90;99.90;;;;;;4991700;28;20218;-60
2022/05/08 06:09:08;;;;;;;11.87;2.53;;;9.00;99.90;;;;;;5010845;28;20312;-60
2022/05/08 06:11:35;;;;;;;9.57;2.80;;;9.00;99.90;;;;;;5007821;28;20232;-61
2022/05/08 06:14:02;;;;;;;14.50;2.80;;;9.10;99.90;;;;;;5013902;28;20623;-61
2022/05/08 06:16:31;;;;;;;8.23;1.93;;;9.20;99.90;;;;;;5016350;28;20228;-62
2022/05/08 06:19:00;;;;;;;10.13;2.63;;;9.20;99.90;;;;;;5001044;28;20912;-61
2022/05/08 06:21:27;;;;;;;14.83;2.20;;;9.30;99.90;;;;;;5015076;28;20854;-61
2022/05/08 06:23:54;;;;;;;7.37;2.13;;;9.40;99.90;;;;;;4996964;28;20206;-60
2022/05/08 06:26:22;;;;;;;18.73;2.40;;;9.30;99.90;;;;;;5015308;28;23100;-61
2022/05/08 06:28:49;;;;;;;10.20;2.13;;;9.30;99.90;;;;;;5010139;28;20230;-61
2022/05/08 06:31:17;;;;;;;7.07;2.00;;;9.30;99.90;;;;;;5008065;28;20797;-61
2022/05/08 06:33:44;;;;;;;10.97;2.20;;;9.30;99.90;;;;;;5017296;28;20213;-61
2022/05/08 06:36:12;;;;;;;10.87;2.23;;;9.30;99.90;;;;;;5004513;28;20332;-61
2022/05/08 06:38:39;;;;;;;18.53;2.13;;;9.30;99.90;;;;;;5009517;28;20870;-60
2022/05/08 06:41:07;;;;;;;6.90;2.10;;;9.30;99.90;;;;;;5005439;28;20213;-62
2022/05/08 06:43:35;;;;;;;11.53;2.03;;;9.30;99.90;;;;;;5005127;28;20228;-60
2022/05/08 06:46:02;;;;;;;12.33;3.47;;;9.30;99.90;;;;;;5003491;28;20208;-61
2022/05/08 06:48:29;;;;;;;6.33;1.97;;;9.40;99.90;;;;;;5021936;28;20344;-61
2022/05/08 06:50:58;;;;;;;5.73;2.03;;;9.50;99.90;;;;;;4997979;28;20233;-61
2022/05/08 06:53:26;;;;;;;16.67;2.70;;;9.50;99.90;;;;;;4998859;28;20214;-61
2022/05/08 06:55:54;;;;;;;6.93;1.80;;;9.50;99.90;;;;;;5018730;28;20225;-61
2022/05/08 06:58:21;;;;;;;5.43;1.63;;;9.50;99.90;;;;;;4998694;28;23209;-60
2022/05/08 07:03:32;;;;;;;12.00;2.30;;;9.50;99.90;;;;;;5009703;28;20321;-61
2022/05/08 07:06:00;;;;;;;18.20;3.10;;;9.60;99.90;;;;;;5015457;28;20217;-60
2022/05/08 07:08:28;;;;;;;10.50;2.30;;;9.60;99.90;;;;;;4978843;28;20344;-61
2022/05/08 07:10:55;;;;;;;8.73;2.30;;;9.60;99.90;;;;;;5019459;28;20784;-60
2022/05/08 07:13:26;;;;;;;14.73;2.63;;;9.70;99.90;;;;;;5011707;28;20742;-61
2022/05/08 07:15:53;;;;;;;11.63;2.73;;;9.70;99.90;;;;;;5027682;28;20302;-60
2022/05/08 07:18:21;;;;;;;10.03;2.20;;;9.70;99.90;;;;;;5015497;28;20582;-60
2022/05/08 07:20:48;;;;;;;9.67;2.00;;;9.70;99.90;;;;;;5001620;28;20210;-61
2022/05/08 07:23:16;;;;;;;11.17;2.37;;;9.80;99.90;;;;;;5002505;28;20217;-61
2022/05/08 07:25:44;;;;;;;9.23;2.80;;;10.10;99.90;;;;;;5000457;28;20221;-61
2022/05/08 07:28:11;;;;;;;10.23;2.17;;;10.20;99.90;;;;;;5014973;28;20202;-60
2022/05/08 07:30:39;;;;;;;13.60;2.90;;;10.20;99.90;;;;;;5002020;28;20221;-61
2022/05/08 07:33:06;;;;;;;18.47;2.80;;;10.20;99.90;;;;;;5005153;28;20240;-61
2022/05/08 07:38:21;;;;;;;16.00;2.90;;;10.40;99.90;;;;;;5020958;28;20208;-61
2022/05/08 07:40:51;;;;;;;7.73;2.30;;;10.30;99.90;;;;;;4995188;28;20379;-61
2022/05/08 07:43:18;;;;;;;12.27;2.90;;;10.30;99.90;;;;;;5017658;28;20286;-61
2022/05/08 07:45:45;;;;;;;10.60;2.30;;;10.30;99.90;;;;;;5006214;28;20296;-61
2022/05/08 07:48:12;;;;;;;21.20;3.37;;;10.40;99.90;;;;;;5006602;28;20232;-61
2022/05/08 07:50:39;;;;;;;9.07;2.17;;;10.60;99.90;;;;;;5017220;28;20218;-60
2022/05/08 07:53:06;;;;;;;10.10;2.60;;;10.60;99.90;;;;;;5007320;28;20229;-61
2022/05/08 07:55:33;;;;;;;8.93;2.17;;;10.70;99.90;;;;;;4987959;28;20209;-61
2022/05/08 07:58:01;;;;;;;9.57;4.00;;;10.80;99.90;;;;;;5002420;28;20226;-61
2022/05/08 08:00:28;;;;;;;5.00;2.10;;;10.80;99.90;;;;;;5004546;28;20277;-60
2022/05/08 08:02:55;;;;;;;12.40;2.60;;;10.60;99.90;;;;;;5008747;28;20237;-60
2022/05/08 08:05:23;;;;;;;9.23;2.50;;;10.40;99.90;;;;;;5005046;28;20248;-61
2022/05/08 08:07:51;;;;;;;13.90;2.60;;;10.40;99.90;;;;;;5006601;28;20225;-61
2022/05/08 08:10:18;;;;;;;13.33;3.20;;;10.30;99.90;;;;;;5014971;28;20258;-61
2022/05/08 08:12:45;;;;;;;20.87;3.53;;;10.40;99.90;;;;;;4994394;28;20709;-60
2022/05/08 08:15:13;;;;;;;15.73;2.80;;;10.60;99.90;;;;;;5013144;28;20714;-61
2022/05/08 08:17:41;;;;;;;12.13;2.43;;;10.70;99.90;;;;;;5020603;28;20290;-61
2022/05/08 08:20:09;;;;;;;14.70;2.47;;;10.80;99.90;;;;;;5027076;28;20252;-60
2022/05/08 08:22:37;;;;;;;11.70;2.37;;;10.80;99.90;;;;;;5016989;28;20251;-60
2022/05/08 08:25:04;;;;;;;17.27;3.13;;;11.00;99.90;;;;;;5015431;28;20244;-60
2022/05/08 08:27:32;;;;;;;11.07;2.53;;;11.00;99.90;;;;;;4985417;28;20629;-60
2022/05/08 08:29:59;;;;;;;11.43;2.40;;;10.80;99.90;;;;;;4997841;28;20336;-61
2022/05/08 08:32:28;;;;;;;10.53;2.53;;;10.80;99.90;;;;;;5009443;28;20290;-60
2022/05/08 08:34:56;;;;;;;15.93;2.35;;;10.80;99.90;;;;;;4995413;28;20251;-61
2022/05/08 08:37:22;;;;;;;10.73;2.10;;;11.00;99.90;;;;;;5017998;28;20217;-61
2022/05/08 08:39:49;;;;;;;16.27;2.58;;;11.10;99.90;;;;;;5007158;28;20308;-61
2022/05/08 08:42:28;;;;;;;11.88;2.08;;;11.20;99.90;;;;;;4983773;28;20210;-61
2022/05/08 08:47:54;;;;;;;12.75;2.15;;;11.20;99.90;;;;;;4969496;28;22778;-61
2022/05/08 08:50:26;;;;;;;11.20;2.47;;;11.10;99.90;;;;;;5004987;28;20241;-61
2022/05/08 08:52:54;;;;;;;12.93;2.40;;;11.10;99.90;;;;;;5005517;28;20233;-61
2022/05/08 08:55:22;;;;;;;8.63;2.00;;;11.20;99.90;;;;;;5000521;28;20205;-60
2022/05/08 08:57:49;;;;;;;9.05;2.03;;;11.20;99.90;;;;;;4998363;28;20213;-61
2022/05/08 09:00:17;;;;;;;5.22;1.80;;;11.30;99.90;;;;;;5010550;28;20232;-61
2022/05/08 09:02:47;;;;;;;11.13;3.20;;;11.40;99.90;;;;;;5001368;28;20205;-61
2022/05/08 09:05:16;;;;;;;10.52;2.30;;;11.50;99.90;;;;;;5004624;28;20209;-61
2022/05/08 09:07:43;;;;;;;11.05;2.72;;;11.50;99.90;;;;;;5003195;28;20201;-61
2022/05/08 09:10:16;;;;;;;7.45;2.67;;;11.60;99.90;;;;;;5013704;28;20198;-61
2022/05/08 09:12:44;;;;;;;9.57;2.58;;;11.80;99.90;;;;;;4992547;28;20233;-60
2022/05/08 09:15:23;;;;;;;8.23;2.25;;;11.70;99.90;;;;;;5005814;28;23284;-59
2022/05/08 09:17:52;;;;;;;11.32;2.85;;;11.80;99.90;;;;;;4983717;28;21424;-59
2022/05/08 09:20:31;;;;;;;12.48;2.40;;;12.00;99.90;;;;;;5004293;28;20252;-59
2022/05/08 09:23:03;;;;;;;10.07;1.92;;;12.20;99.90;;;;;;4994845;28;20209;-60
2022/05/08 09:25:50;;;;;;;5.93;1.83;;;12.40;99.90;;;;;;5012674;28;20233;-59
2022/05/08 09:28:18;;;;;;;8.18;1.80;;;12.60;99.90;;;;;;4990838;28;20216;-59
2022/05/08 09:30:56;;;;;;;8.00;2.45;;;12.60;99.90;;;;;;4997489;28;20253;-60
2022/05/08 09:33:28;;;;;;;9.63;3.15;;;12.50;99.90;;;;;;4990702;28;21081;-59
2022/05/08 09:35:57;;;;;;;6.00;2.50;;;12.10;99.90;;;;;;5002836;28;20232;-59
2022/05/08 09:38:44;;;;;;;6.43;1.92;;;12.10;99.90;;;;;;4993107;28;20851;-59
2022/05/08 09:41:12;;;;;;;10.18;2.70;;;12.00;99.90;;;;;;5008666;28;20221;-60
2022/05/08 09:43:41;;;;;;;7.30;2.17;;;12.10;99.90;;;;;;4997304;28;20233;-59
2022/05/08 09:46:10;;;;;;;10.35;3.38;;;12.10;99.90;;;;;;5005649;28;20228;-60
2022/05/08 09:48:37;;;;;;;15.73;2.42;;;12.30;99.90;;;;;;5008713;28;20225;-59
2022/05/08 09:51:07;;;;;;;6.85;2.13;;;12.30;99.90;;;;;;4991271;28;20245;-60
2022/05/08 09:53:37;;;;;;;11.52;2.55;;;12.40;99.90;;;;;;5022987;28;20582;-61
2022/05/08 09:56:06;;;;;;;9.45;2.55;;;12.30;99.90;;;;;;4989341;28;20233;-59
2022/05/08 09:58:33;;;;;;;12.15;2.47;;;12.40;99.90;;;;;;5019303;28;20226;-59
2022/05/08 10:01:01;;;;;;;12.63;2.78;;;12.50;99.90;;;;;;4994472;28;23983;-59
2022/05/08 10:03:29;;;;;;;7.32;2.30;;;12.40;99.90;;;;;;4987165;28;20229;-59
2022/05/08 10:05:59;;;;;;;12.95;2.47;;;12.30;99.90;;;;;;5008280;28;20225;-60
2022/05/08 10:08:30;;;;;;;13.98;2.10;;;12.50;99.90;;;;;;4999729;28;20572;-63
2022/05/08 10:14:03;;;;;;;9.25;2.42;;;12.50;99.90;;;;;;5016120;28;20291;-60
2022/05/08 10:16:47;;;;;;;10.25;2.30;;;12.40;99.90;;;;;;5020867;28;20729;-60
2022/05/08 10:19:55;;;;;;;14.50;2.47;;;12.50;99.90;;;;;;5015921;28;20205;-60
2022/05/08 10:22:24;;;;;;;13.57;2.15;;;12.70;99.90;;;;;;5010544;28;20203;-59
2022/05/08 10:25:10;;;;;;;9.48;2.22;;;12.60;99.90;;;;;;5021976;28;20698;-60
2022/05/08 10:27:37;;;;;;;7.13;2.63;;;12.60;99.90;;;;;;5009211;28;20205;-60
2022/05/08 10:30:32;;;;;;;6.55;2.42;;;12.60;99.90;;;;;;5014971;28;20225;-59
2022/05/08 10:32:59;;;;;;;9.98;2.38;;;12.60;99.90;;;;;;5034880;28;20737;-61
2022/05/08 10:35:28;;;;;;;8.25;2.83;;;12.60;99.90;;;;;;5020008;28;21139;-60
2022/05/08 10:38:25;;;;;;;8.35;2.28;;;12.60;99.90;;;;;;5012226;28;20209;-60
2022/05/08 10:40:55;;;;;;;8.85;2.28;;;12.50;99.90;;;;;;5029809;28;20197;-59
2022/05/08 10:43:33;;;;;;;5.80;2.90;;;12.50;99.90;;;;;;5021167;28;20629;-60
2022/05/08 10:46:30;;;;;;;11.60;2.80;;;12.70;99.90;;;;;;5013824;28;20214;-60
2022/05/08 10:48:59;;;;;;;13.32;2.30;;;12.60;99.90;;;;;;4930031;28;20200;-61
2022/05/08 10:51:26;;;;;;;5.53;1.90;;;12.70;99.90;;;;;;4998535;28;20659;-60
2022/05/08 10:53:54;;;;;;;9.18;2.47;;;12.70;99.90;;;;;;5025593;28;20244;-60
2022/05/08 10:56:24;;;;;;;11.05;2.72;;;12.60;99.90;;;;;;5009877;28;20217;-63
2022/05/08 10:58:54;;;;;;;8.40;2.30;;;12.70;99.90;;;;;;5035402;28;20225;-60
2022/05/08 11:01:23;;;;;;;8.00;2.17;;;12.80;99.90;;;;;;5007083;28;20213;-62
2022/05/08 11:03:50;;;;;;;11.23;2.72;;;12.70;99.90;;;;;;5031838;28;20220;-59
2022/05/08 11:06:21;;;;;;;5.75;2.17;;;12.70;99.90;;;;;;4996912;28;20198;-60
2022/05/08 11:08:49;;;;;;;13.25;2.92;;;12.60;99.90;;;;;;5031167;28;20313;-60
2022/05/08 11:11:16;;;;;;;10.00;2.50;;;12.70;99.90;;;;;;5019560;28;20198;-60
2022/05/08 11:13:46;;;;;;;7.55;2.05;;;13.00;99.90;;;;;;5020719;28;20768;-60
2022/05/08 11:16:29;;;;;;;7.55;2.60;;;12.90;99.90;;;;;;5025071;28;20197;-60
2022/05/08 11:18:59;;;;;;;6.60;1.90;;;13.00;99.90;;;;;;5030776;28;20209;-60
2022/05/08 11:21:26;;;;;;;8.70;2.50;;;13.20;99.90;;;;;;5003814;28;20209;-59
2022/05/08 11:23:54;;;;;;;9.23;2.42;;;13.20;99.90;;;;;;5033039;28;20204;-60
2022/05/08 11:26:28;;;;;;;6.07;2.35;;;13.00;99.90;;;;;;5017051;28;20225;-60
2022/05/08 11:28:58;;;;;;;6.18;1.88;;;13.20;99.90;;;;;;5033518;28;20209;-59
2022/05/08 11:31:27;;;;;;;8.85;2.33;;;13.30;99.90;;;;;;4997997;28;20688;-60
2022/05/08 11:36:40;;;;;;;5.70;1.90;;;13.30;99.90;;;;;;5008998;28;20301;-60
2022/05/08 11:39:11;;;;;;;10.30;2.42;;;13.30;99.90;;;;;;5017657;28;20204;-60
2022/05/08 11:41:41;;;;;;;5.28;1.98;;;13.20;99.90;;;;;;5025130;28;20225;-60
2022/05/08 11:44:24;;;;;;;8.98;2.42;;;13.20;99.90;;;;;;5030189;28;20221;-60
2022/05/08 11:46:55;;;;;;;8.90;2.63;;;13.30;99.90;;;;;;5020632;28;20275;-60
2022/05/08 11:49:23;;;;;;;12.43;2.33;;;13.40;99.90;;;;;;5004918;28;20210;-60
2022/05/08 11:51:52;;;;;;;15.70;2.53;;;13.40;99.90;;;;;;5003729;28;20209;-60
2022/05/08 11:54:24;;;;;;;6.55;2.60;;;13.40;99.90;;;;;;5018622;28;20907;-60
2022/05/08 11:57:09;;;;;;;10.30;2.17;;;13.50;99.90;;;;;;5010246;28;20633;-60
2022/05/08 11:59:38;;;;;;;7.75;2.00;;;13.40;99.90;;;;;;5030203;28;20688;-60
2022/05/08 12:02:04;;;;;;;16.05;2.80;;;13.30;99.90;;;;;;5028248;28;20210;-60
2022/05/08 12:04:33;;;;;;;9.27;2.47;;;13.30;99.90;;;;;;4996804;28;20235;-60
2022/05/08 12:07:03;;;;;;;8.73;2.85;;;13.40;99.90;;;;;;5024788;28;20193;-60
2022/05/08 12:09:30;;;;;;;9.40;2.50;;;13.50;99.90;;;;;;5006682;28;20575;-60
2022/05/08 12:12:18;;;;;;;8.93;1.98;;;13.50;99.90;;;;;;5005458;28;20224;-60
2022/05/08 12:14:46;;;;;;;11.25;2.38;;;13.50;99.90;;;;;;5025371;28;20283;-60
2022/05/08 12:17:13;;;;;;;9.27;2.50;;;13.40;99.90;;;;;;5031260;28;20209;-60
2022/05/08 12:19:50;;;;;;;8.57;2.20;;;13.30;99.90;;;;;;5007361;28;20682;-60
2022/05/08 12:22:21;;;;;;;15.05;2.47;;;13.60;99.90;;;;;;5022511;28;20202;-60
2022/05/08 12:24:48;;;;;;;10.93;2.40;;;13.60;99.90;;;;;;4989996;28;20264;-60
2022/05/08 12:27:15;;;;;;;7.65;2.20;;;13.60;99.90;;;;;;5023096;28;20205;-59
2022/05/08 12:29:44;;;;;;;9.50;2.22;;;13.50;99.90;;;;;;5025449;28;20194;-60
2022/05/08 12:32:14;;;;;;;12.23;2.38;;;13.50;99.90;;;;;;5015533;28;20198;-60
2022/05/08 12:34:41;;;;;;;6.07;2.00;;;13.60;99.90;;;;;;5007328;28;20711;-60
2022/05/08 12:37:11;;;;;;;10.15;2.42;;;13.60;99.90;;;;;;5030118;28;28873;-60
2022/05/08 12:39:38;;;;;;;10.80;2.25;;;13.60;99.90;;;;;;5004862;28;20236;-60
2022/05/08 12:42:06;;;;;;;12.10;2.50;;;13.70;99.90;;;;;;5013242;28;20606;-60
2022/05/08 12:44:34;;;;;;;10.70;2.42;;;13.70;99.90;;;;;;5011022;28;20603;-60
2022/05/08 12:47:02;;;;;;;10.80;2.60;;;13.60;99.90;;;;;;5023521;28;20205;-60
2022/05/08 12:49:31;;;;;;;7.53;2.17;;;13.50;99.90;;;;;;5024804;28;20197;-60
2022/05/08 12:51:59;;;;;;;13.15;2.20;;;13.50;99.90;;;;;;5019152;28;20808;-60
2022/05/08 12:54:26;;;;;;;6.80;2.20;;;13.50;99.90;;;;;;5010712;28;20226;-60
2022/05/08 12:56:53;;;;;;;7.93;2.00;;;13.60;99.90;;;;;;5011614;28;20205;-60
2022/05/08 13:02:04;;;;;;;11.55;2.13;;;13.70;99.90;;;;;;5030753;28;20208;-60
2022/05/08 13:04:33;;;;;;;9.07;2.22;;;13.70;99.90;;;;;;5011503;28;20212;-60
2022/05/08 13:07:00;;;;;;;12.20;1.95;;;13.60;99.90;;;;;;5006860;28;20209;-60
2022/05/08 13:09:27;;;;;;;9.32;2.60;;;13.70;99.90;;;;;;5020000;28;20283;-61
2022/05/08 13:11:54;;;;;;;7.78;2.35;;;13.70;99.90;;;;;;5014993;28;20312;-60
2022/05/08 13:14:21;;;;;;;6.60;2.17;;;13.90;99.90;;;;;;5017129;28;20326;-60
2022/05/08 13:16:48;;;;;;;9.10;2.83;;;13.80;99.90;;;;;;5004589;28;20201;-60
2022/05/08 13:19:15;;;;;;;3.83;2.08;;;13.80;99.90;;;;;;5027944;28;20206;-60
2022/05/08 13:21:44;;;;;;;9.63;1.90;;;13.70;99.90;;;;;;4994292;28;20205;-60
2022/05/08 13:24:11;;;;;;;9.20;2.67;;;13.80;99.90;;;;;;5032743;28;20201;-60
2022/05/08 13:26:38;;;;;;;10.50;2.63;;;13.80;99.90;;;;;;5010783;28;20225;-60
2022/05/08 13:29:06;;;;;;;6.03;2.10;;;13.80;99.90;;;;;;5022126;28;20205;-60